createdAt,value
2018-03-24T00:01:38.673Z,57.10
2018-03-24T00:04:05.135Z,57.10
2018-03-24T00:06:31.617Z,57.10
2018-03-24T00:08:58.080Z,57.00
2018-03-24T00:11:24.550Z,57.10
2018-03-24T00:13:51.001Z,57.10
2018-03-24T00:16:17.464Z,57.10
2018-03-24T00:18:43.945Z,57.00
2018-03-24T00:21:10.465Z,57.10
2018-03-24T00:23:36.912Z,57.10
2018-03-24T00:26:03.404Z,57.10
2018-03-24T00:28:30.664Z,57.10
2018-03-24T00:30:57.467Z,57.00
2018-03-24T00:33:24.036Z,57.00
2018-03-24T00:35:51.692Z,57.10
2018-03-24T00:38:18.265Z,57.10
2018-03-24T00:40:44.719Z,57.10
2018-03-24T00:43:11.785Z,57.10
2018-03-24T00:45:38.719Z,57.10
2018-03-24T00:48:05.253Z,57.10
2018-03-24T00:50:31.711Z,57.20
2018-03-24T00:52:58.170Z,57.20
2018-03-24T00:55:24.622Z,57.10
2018-03-24T00:57:53.086Z,57.20
2018-03-24T01:00:20.287Z,57.20
2018-03-24T01:02:46.836Z,57.20
2018-03-24T01:05:13.284Z,57.20
2018-03-24T01:07:39.744Z,57.20
2018-03-24T01:10:06.286Z,57.20
2018-03-24T01:12:32.758Z,57.20
2018-03-24T01:14:59.266Z,57.20
2018-03-24T01:17:25.723Z,57.20
2018-03-24T01:19:52.241Z,57.20
2018-03-24T01:22:18.717Z,57.20
2018-03-24T01:24:45.195Z,57.20
2018-03-24T01:27:11.724Z,57.20
2018-03-24T01:29:38.192Z,57.20
2018-03-24T01:32:04.688Z,57.20
2018-03-24T01:34:31.133Z,57.20
2018-03-24T01:36:58.377Z,57.20
2018-03-24T01:39:24.859Z,57.20
2018-03-24T01:41:52.076Z,57.20
2018-03-24T01:44:18.621Z,57.30
2018-03-24T01:46:45.082Z,57.30
2018-03-24T01:49:11.543Z,57.20
2018-03-24T01:51:38.031Z,57.30
2018-03-24T01:54:04.491Z,57.30
2018-03-24T01:56:31.003Z,57.30
2018-03-24T01:58:57.462Z,57.30
2018-03-24T02:01:24.703Z,57.30
2018-03-24T02:03:51.187Z,57.30
2018-03-24T02:06:18.421Z,57.30
2018-03-24T02:08:44.890Z,57.30
2018-03-24T02:11:11.338Z,57.30
2018-03-24T02:13:37.877Z,57.30
2018-03-24T02:16:04.319Z,57.30
2018-03-24T02:18:30.792Z,57.30
2018-03-24T02:20:57.265Z,57.30
2018-03-24T02:23:23.711Z,57.30
2018-03-24T02:25:50.195Z,57.30
2018-03-24T02:28:16.681Z,57.30
2018-03-24T02:30:43.171Z,57.30
2018-03-24T02:33:09.634Z,57.30
2018-03-24T02:35:36.122Z,57.30
2018-03-24T02:38:02.585Z,57.30
2018-03-24T02:40:29.076Z,57.30
2018-03-24T02:42:55.573Z,57.30
2018-03-24T02:45:22.044Z,57.30
2018-03-24T02:47:48.508Z,57.30
2018-03-24T02:50:14.962Z,57.30
2018-03-24T02:52:41.414Z,57.20
2018-03-24T02:55:07.906Z,57.30
2018-03-24T02:57:34.363Z,57.30
2018-03-24T03:00:00.829Z,57.30
2018-03-24T03:02:27.342Z,57.30
2018-03-24T03:04:54.524Z,57.30
2018-03-24T03:07:20.995Z,57.20
2018-03-24T03:09:47.448Z,57.20
2018-03-24T03:12:13.931Z,57.30
2018-03-24T03:14:40.426Z,57.20
2018-03-24T03:17:07.637Z,57.20
2018-03-24T03:19:34.124Z,57.10
2018-03-24T03:22:00.593Z,57.20
2018-03-24T03:24:27.082Z,57.20
2018-03-24T03:26:54.302Z,57.20
2018-03-24T03:29:20.786Z,57.10
2018-03-24T03:31:47.233Z,57.20
2018-03-24T03:34:13.750Z,57.20
2018-03-24T03:36:40.225Z,57.20
2018-03-24T03:39:06.679Z,57.20
2018-03-24T03:41:33.147Z,57.20
2018-03-24T03:43:59.619Z,57.20
2018-03-24T03:46:26.102Z,57.10
2018-03-24T03:48:52.552Z,57.10
2018-03-24T03:51:19.053Z,57.10
2018-03-24T03:53:46.287Z,57.10
2018-03-24T03:56:12.765Z,57.00
2018-03-24T03:58:39.218Z,57.10
2018-03-24T04:01:05.676Z,57.10
2018-03-24T04:03:32.153Z,57.10
2018-03-24T04:05:59.396Z,57.10
2018-03-24T04:08:25.901Z,57.10
2018-03-24T04:10:53.118Z,57.10
2018-03-24T04:13:19.617Z,57.10
2018-03-24T04:15:46.077Z,57.10
2018-03-24T04:18:12.534Z,57.10
2018-03-24T04:20:38.992Z,57.10
2018-03-24T04:23:05.442Z,57.10
2018-03-24T04:25:31.912Z,57.10
2018-03-24T04:27:58.386Z,57.10
2018-03-24T04:30:25.660Z,57.00
2018-03-24T04:32:52.887Z,57.10
2018-03-24T04:35:19.366Z,57.00
2018-03-24T04:37:45.839Z,57.60
2018-03-24T04:40:12.323Z,57.10
2018-03-24T04:42:39.589Z,57.00
2018-03-24T04:45:06.823Z,57.00
2018-03-24T04:47:33.320Z,57.00
2018-03-24T04:49:59.765Z,57.60
2018-03-24T04:52:26.258Z,57.00
2018-03-24T04:54:52.733Z,57.00
2018-03-24T04:57:19.252Z,57.00
2018-03-24T04:59:45.723Z,57.00
2018-03-24T05:02:12.984Z,57.00
2018-03-24T05:04:39.474Z,57.00
2018-03-24T05:07:06.734Z,57.00
2018-03-24T05:09:33.996Z,57.00
2018-03-24T05:12:00.455Z,57.00
2018-03-24T05:14:26.914Z,56.90
2018-03-24T05:16:53.370Z,56.90
2018-03-24T05:19:19.826Z,56.90
2018-03-24T05:21:46.302Z,56.90
2018-03-24T05:24:13.524Z,56.90
2018-03-24T05:26:40.008Z,56.90
2018-03-24T05:29:06.479Z,56.90
2018-03-24T05:31:32.991Z,56.90
2018-03-24T05:33:59.461Z,56.90
2018-03-24T05:36:25.921Z,56.90
2018-03-24T05:38:52.380Z,56.80
2018-03-24T05:41:18.876Z,56.80
2018-03-24T05:43:45.368Z,56.80
2018-03-24T05:46:11.825Z,56.80
2018-03-24T05:48:39.130Z,56.80
2018-03-24T05:51:05.587Z,56.80
2018-03-24T05:53:32.046Z,56.80
2018-03-24T05:55:58.511Z,56.80
2018-03-24T05:58:24.960Z,56.70
2018-03-24T06:00:51.430Z,56.70
2018-03-24T06:03:17.875Z,56.70
2018-03-24T06:05:44.366Z,56.80
2018-03-24T06:08:10.827Z,56.70
2018-03-24T06:10:37.363Z,56.70
2018-03-24T06:13:03.796Z,56.70
2018-03-24T06:15:30.257Z,56.70
2018-03-24T06:17:56.702Z,56.80
2018-03-24T06:23:00.637Z,56.60
2018-03-24T06:25:27.116Z,56.60
2018-03-24T06:27:54.402Z,54.70
2018-03-24T06:30:20.867Z,54.60
2018-03-24T06:32:48.110Z,56.50
2018-03-24T06:35:14.567Z,56.50
2018-03-24T06:37:41.045Z,56.30
2018-03-24T06:40:08.299Z,56.40
2018-03-24T06:42:34.784Z,56.10
2018-03-24T06:45:01.270Z,56.30
2018-03-24T06:47:28.484Z,56.30
2018-03-24T06:49:54.969Z,56.20
2018-03-24T06:52:21.431Z,56.30
2018-03-24T06:54:47.891Z,56.30
2018-03-24T06:57:14.954Z,56.30
2018-03-24T06:59:41.412Z,54.60
2018-03-24T07:02:07.915Z,55.50
2018-03-24T07:04:34.372Z,56.40
2018-03-24T07:07:00.851Z,56.30
2018-03-24T07:09:27.307Z,56.30
2018-03-24T07:11:53.803Z,56.30
2018-03-24T07:14:20.265Z,56.30
2018-03-24T07:16:46.726Z,56.40
2018-03-24T07:19:13.179Z,54.80
2018-03-24T07:21:39.631Z,47.20
2018-03-24T07:24:06.086Z,47.10
2018-03-24T07:26:32.559Z,48.70
2018-03-24T07:28:59.067Z,50.00
2018-03-24T07:31:25.573Z,50.20
2018-03-24T07:33:52.064Z,46.50
2018-03-24T07:36:19.275Z,44.40
2018-03-24T07:38:45.725Z,44.40
2018-03-24T07:41:12.215Z,49.50
2018-03-24T07:43:38.684Z,49.40
2018-03-24T07:46:05.143Z,48.70
2018-03-24T07:48:31.601Z,49.60
2018-03-24T07:50:58.109Z,49.50
2018-03-24T07:53:24.585Z,49.50
2018-03-24T07:55:51.056Z,49.60
2018-03-24T07:58:17.504Z,49.70
2018-03-24T08:00:43.981Z,49.90
2018-03-24T08:03:10.454Z,50.00
2018-03-24T08:05:36.901Z,50.10
2018-03-24T08:08:03.395Z,50.30
2018-03-24T08:10:30.623Z,50.70
2018-03-24T08:12:57.129Z,50.70
2018-03-24T08:15:23.586Z,50.90
2018-03-24T08:17:50.071Z,51.10
2018-03-24T08:20:16.534Z,51.30
2018-03-24T08:22:42.993Z,51.50
2018-03-24T08:25:09.444Z,51.70
2018-03-24T08:27:36.674Z,52.20
2018-03-24T08:30:03.169Z,52.20
2018-03-24T08:32:30.405Z,52.50
2018-03-24T08:34:56.881Z,52.50
2018-03-24T08:37:23.345Z,52.70
2018-03-24T08:39:49.817Z,52.80
2018-03-24T08:42:17.069Z,53.20
2018-03-24T08:44:43.571Z,53.10
2018-03-24T08:47:10.822Z,53.40
2018-03-24T08:49:38.080Z,53.50
2018-03-24T08:52:04.572Z,53.50
2018-03-24T08:54:31.799Z,53.70
2018-03-24T08:56:58.285Z,53.70
2018-03-24T08:59:24.773Z,53.80
2018-03-24T09:01:51.251Z,54.00
2018-03-24T09:04:17.841Z,54.00
2018-03-24T09:06:44.317Z,54.20
2018-03-24T09:09:10.812Z,54.20
2018-03-24T09:11:38.059Z,54.40
2018-03-24T09:14:04.540Z,54.50
2018-03-24T09:16:31.786Z,54.60
2018-03-24T09:18:58.294Z,54.60
2018-03-24T09:21:24.755Z,54.70
2018-03-24T09:23:51.202Z,54.80
2018-03-24T09:26:18.416Z,54.90
2018-03-24T09:28:44.877Z,54.90
2018-03-24T09:31:11.383Z,55.00
2018-03-24T09:33:37.861Z,55.00
2018-03-24T09:36:05.120Z,55.20
2018-03-24T09:38:32.353Z,55.20
2018-03-24T09:40:58.799Z,55.20
2018-03-24T09:43:25.254Z,55.30
2018-03-24T09:45:51.696Z,55.40
2018-03-24T09:48:18.301Z,55.40
2018-03-24T09:50:44.786Z,55.50
2018-03-24T09:53:11.281Z,55.50
2018-03-24T09:55:37.769Z,56.20
2018-03-24T09:58:04.304Z,55.70
2018-03-24T10:00:30.826Z,55.70
2018-03-24T10:02:57.287Z,55.70
2018-03-24T10:05:23.799Z,55.80
2018-03-24T10:07:50.258Z,55.80
2018-03-24T10:10:16.793Z,55.90
2018-03-24T10:12:43.297Z,56.00
2018-03-24T10:15:09.799Z,56.50
2018-03-24T10:17:37.037Z,56.10
2018-03-24T10:20:03.482Z,56.00
2018-03-24T10:22:29.970Z,56.10
2018-03-24T10:24:56.402Z,56.20
2018-03-24T10:27:22.885Z,56.20
2018-03-24T10:29:49.365Z,56.20
2018-03-24T10:32:16.597Z,56.40
2018-03-24T10:34:43.124Z,56.30
2018-03-24T10:37:09.593Z,56.40
2018-03-24T10:39:36.062Z,56.40
2018-03-24T10:42:02.559Z,56.40
2018-03-24T10:44:29.807Z,56.50
2018-03-24T10:46:56.281Z,56.50
2018-03-24T10:49:22.759Z,56.60
2018-03-24T10:51:49.996Z,56.50
2018-03-24T10:54:16.479Z,56.60
2018-03-24T10:56:42.944Z,56.60
2018-03-24T10:59:09.420Z,56.70
2018-03-24T11:01:36.647Z,56.80
2018-03-24T11:04:03.120Z,56.70
2018-03-24T11:06:29.573Z,56.80
2018-03-24T11:08:56.105Z,56.80
2018-03-24T11:11:22.578Z,56.80
2018-03-24T11:13:49.025Z,56.80
2018-03-24T11:16:15.518Z,56.60
2018-03-24T11:18:42.128Z,56.70
2018-03-24T11:21:08.615Z,56.60
2018-03-24T11:23:35.125Z,56.50
2018-03-24T11:26:01.598Z,56.60
2018-03-24T11:28:28.831Z,56.70
2018-03-24T11:30:55.333Z,56.60
2018-03-24T11:33:21.882Z,56.70
2018-03-24T11:35:49.286Z,56.80
2018-03-24T11:38:15.825Z,56.80
2018-03-24T11:40:43.105Z,56.80
2018-03-24T11:43:10.361Z,56.90
2018-03-24T11:45:36.834Z,56.80
2018-03-24T11:48:03.347Z,56.90
2018-03-24T11:50:29.870Z,56.90
2018-03-24T11:52:57.112Z,57.00
2018-03-24T11:55:23.725Z,56.90
2018-03-24T11:57:50.201Z,57.00
2018-03-24T12:00:16.961Z,57.00
2018-03-24T12:02:43.484Z,57.10
2018-03-24T12:05:10.720Z,57.00
2018-03-24T12:07:37.201Z,57.00
2018-03-24T12:10:03.685Z,57.10
2018-03-24T12:12:31.150Z,57.10
2018-03-24T12:14:58.906Z,57.10
2018-03-24T12:17:25.517Z,57.00
2018-03-24T12:19:52.855Z,57.10
2018-03-24T12:22:19.396Z,57.10
2018-03-24T12:24:45.920Z,57.10
2018-03-24T12:27:13.567Z,57.10
2018-03-24T12:29:40.321Z,57.10
2018-03-24T12:32:06.914Z,57.10
2018-03-24T12:34:34.183Z,57.10
2018-03-24T12:37:00.651Z,57.10
2018-03-24T12:39:27.311Z,57.10
2018-03-24T12:41:53.923Z,57.10
2018-03-24T12:44:20.394Z,57.20
2018-03-24T12:46:47.322Z,57.20
2018-03-24T12:49:14.039Z,57.20
2018-03-24T12:51:40.693Z,57.20
2018-03-24T12:54:07.362Z,57.20
2018-03-24T12:56:34.202Z,57.30
2018-03-24T12:59:00.846Z,57.20
2018-03-24T13:01:28.463Z,57.80
2018-03-24T13:03:55.365Z,57.20
2018-03-24T13:06:22.664Z,57.20
2018-03-24T13:08:49.174Z,57.10
2018-03-24T13:11:15.760Z,57.20
2018-03-24T13:13:42.454Z,57.30
2018-03-24T13:16:09.301Z,57.30
2018-03-24T13:18:37.016Z,57.10
2018-03-24T13:21:03.898Z,57.10
2018-03-24T13:23:31.293Z,57.10
2018-03-24T13:25:57.801Z,57.00
2018-03-24T13:28:24.309Z,57.00
2018-03-24T13:30:50.866Z,56.80
2018-03-24T13:33:17.346Z,56.90
2018-03-24T13:35:44.012Z,56.80
2018-03-24T13:38:10.656Z,56.90
2018-03-24T13:40:37.468Z,56.90
2018-03-24T13:43:04.192Z,56.90
2018-03-24T13:45:30.902Z,57.10
2018-03-24T13:47:57.470Z,57.00
2018-03-24T13:50:24.748Z,57.10
2018-03-24T13:52:51.998Z,57.00
2018-03-24T13:55:18.550Z,57.00
2018-03-24T13:57:45.429Z,57.10
2018-03-24T14:00:11.986Z,57.00
2018-03-24T14:02:38.901Z,57.00
2018-03-24T14:05:05.578Z,56.80
2018-03-24T14:07:32.597Z,57.00
2018-03-24T14:09:59.208Z,57.10
2018-03-24T14:12:25.680Z,57.10
2018-03-24T14:14:52.140Z,57.10
2018-03-24T14:17:18.689Z,57.10
2018-03-24T14:19:45.273Z,57.10
2018-03-24T14:22:12.138Z,57.10
2018-03-24T14:24:38.629Z,57.00
2018-03-24T14:27:05.246Z,56.90
2018-03-24T14:29:31.798Z,56.80
2018-03-24T14:31:59.125Z,56.70
2018-03-24T14:34:25.660Z,56.70
2018-03-24T14:36:53.292Z,56.30
2018-03-24T14:39:20.231Z,56.30
2018-03-24T14:41:47.052Z,56.90
2018-03-24T14:44:13.957Z,56.90
2018-03-24T14:46:40.528Z,56.10
2018-03-24T14:49:07.922Z,56.30
2018-03-24T14:51:34.889Z,56.30
2018-03-24T14:54:01.592Z,57.10
2018-03-24T14:56:28.896Z,56.40
2018-03-24T14:58:56.188Z,56.30
2018-03-24T15:01:24.039Z,56.30
2018-03-24T15:03:50.985Z,56.30
2018-03-24T15:06:18.339Z,56.40
2018-03-24T15:08:45.584Z,55.00
2018-03-24T15:11:12.062Z,54.80
2018-03-24T15:13:39.060Z,53.00
2018-03-24T15:16:06.124Z,54.10
2018-03-24T15:18:33.065Z,54.40
2018-03-24T15:21:00.130Z,54.70
2018-03-24T15:23:27.044Z,54.70
2018-03-24T15:25:54.177Z,54.80
2018-03-24T15:28:20.736Z,54.80
2018-03-24T15:30:47.696Z,54.80
2018-03-24T15:33:14.592Z,55.00
2018-03-24T15:35:41.501Z,54.80
2018-03-24T15:38:08.347Z,54.70
2018-03-24T15:40:35.367Z,54.70
2018-03-24T15:43:02.104Z,54.80
2018-03-24T15:45:28.970Z,55.20
2018-03-24T15:47:55.880Z,53.50
2018-03-24T15:50:22.830Z,52.70
2018-03-24T15:52:49.987Z,50.50
2018-03-24T15:55:16.873Z,50.30
2018-03-24T15:57:44.654Z,49.10
2018-03-24T16:00:11.709Z,49.10
2018-03-24T16:02:38.764Z,49.00
2018-03-24T16:05:05.910Z,48.70
2018-03-24T16:07:32.899Z,47.40
2018-03-24T16:09:59.981Z,49.30
2018-03-24T16:12:27.157Z,50.80
2018-03-24T16:14:54.121Z,51.40
2018-03-24T16:17:21.315Z,50.50
2018-03-24T16:19:48.349Z,51.30
2018-03-24T16:22:16.186Z,52.20
2018-03-24T16:24:43.375Z,52.20
2018-03-24T16:27:10.409Z,52.60
2018-03-24T16:29:38.367Z,53.20
2018-03-24T16:32:06.145Z,53.30
2018-03-24T16:34:33.204Z,53.20
2018-03-24T16:37:01.030Z,53.40
2018-03-24T16:39:28.111Z,53.40
2018-03-24T16:41:55.356Z,53.50
2018-03-24T16:44:22.333Z,53.60
2018-03-24T16:46:50.047Z,53.60
2018-03-24T16:49:17.055Z,53.60
2018-03-24T16:51:44.103Z,53.70
2018-03-24T16:54:11.315Z,54.20
2018-03-24T16:56:38.357Z,53.70
2018-03-24T16:59:05.484Z,53.80
2018-03-24T17:01:33.320Z,54.10
2018-03-24T17:04:00.359Z,54.10
2018-03-24T17:06:27.525Z,52.60
2018-03-24T17:08:54.593Z,50.70
2018-03-24T17:11:21.734Z,51.70
2018-03-24T17:13:48.777Z,51.90
2018-03-24T17:16:15.731Z,52.00
2018-03-24T17:18:42.902Z,51.90
2018-03-24T17:21:09.993Z,52.00
2018-03-24T17:23:37.051Z,52.10
2018-03-24T17:26:04.048Z,52.10
2018-03-24T17:28:31.094Z,52.00
2018-03-24T17:30:58.965Z,52.10
2018-03-24T17:33:26.069Z,52.10
2018-03-24T17:35:54.057Z,52.10
2018-03-24T17:38:21.870Z,52.00
2018-03-24T17:40:49.690Z,52.00
2018-03-24T17:43:16.891Z,52.00
2018-03-24T17:45:43.993Z,51.90
2018-03-24T17:48:12.142Z,50.70
2018-03-24T17:50:39.236Z,51.10
2018-03-24T17:53:06.358Z,52.20
2018-03-24T17:55:34.325Z,52.40
2018-03-24T17:58:01.540Z,52.30
2018-03-24T18:00:28.837Z,52.30
2018-03-24T18:02:56.637Z,51.70
2018-03-24T18:05:24.464Z,51.70
2018-03-24T18:07:52.097Z,51.70
2018-03-24T18:10:21.378Z,51.70
2018-03-24T18:12:48.537Z,51.90
2018-03-24T18:15:16.386Z,51.70
2018-03-24T18:17:43.486Z,51.70
2018-03-24T18:20:11.468Z,51.40
2018-03-24T18:22:39.668Z,51.40
2018-03-24T18:25:06.845Z,51.40
2018-03-24T18:27:33.952Z,51.20
2018-03-24T18:30:03.358Z,51.20
2018-03-24T18:32:30.585Z,51.20
2018-03-24T18:34:57.693Z,51.20
2018-03-24T18:37:24.898Z,51.10
2018-03-24T18:39:52.039Z,52.10
2018-03-24T18:42:19.145Z,52.10
2018-03-24T18:44:46.333Z,52.20
2018-03-24T18:47:13.422Z,52.40
2018-03-24T18:49:40.774Z,52.30
2018-03-24T18:52:07.864Z,52.50
2018-03-24T18:54:35.064Z,52.40
2018-03-24T18:57:02.901Z,52.90
2018-03-24T18:59:30.022Z,53.00
2018-03-24T19:01:57.187Z,52.90
2018-03-24T19:04:24.367Z,53.10
2018-03-24T19:06:52.410Z,53.20
2018-03-24T19:09:20.284Z,53.20
2018-03-24T19:11:48.119Z,53.10
2018-03-24T19:14:15.319Z,53.10
2018-03-24T19:16:42.412Z,53.10
2018-03-24T19:19:09.609Z,53.00
2018-03-24T19:21:37.445Z,52.90
2018-03-24T19:24:04.561Z,52.90
2018-03-24T19:26:32.389Z,52.80
2018-03-24T19:28:59.463Z,52.80
2018-03-24T19:31:26.672Z,52.80
2018-03-24T19:33:53.775Z,52.80
2018-03-24T19:36:21.746Z,52.40
2018-03-24T19:38:48.829Z,52.40
2018-03-24T19:41:15.900Z,51.90
2018-03-24T19:43:43.101Z,52.30
2018-03-24T19:46:12.180Z,52.20
2018-03-24T19:48:39.791Z,52.20
2018-03-24T19:51:06.908Z,52.20
2018-03-24T19:53:34.084Z,52.30
2018-03-24T19:56:01.188Z,52.10
2018-03-24T19:58:28.435Z,52.40
2018-03-24T20:00:55.560Z,52.90
2018-03-24T20:03:25.407Z,53.40
2018-03-24T20:05:52.597Z,53.80
2018-03-24T20:08:20.481Z,55.70
2018-03-24T20:10:47.705Z,55.70
2018-03-24T20:13:14.880Z,55.70
2018-03-24T20:15:42.005Z,55.80
2018-03-24T20:18:10.027Z,56.00
2018-03-24T20:20:37.092Z,55.90
2018-03-24T20:23:04.298Z,56.00
2018-03-24T20:25:31.400Z,55.90
2018-03-24T20:27:59.533Z,53.90
2018-03-24T20:30:27.409Z,54.30
2018-03-24T20:32:55.708Z,54.30
2018-03-24T20:35:23.538Z,56.80
2018-03-24T20:37:51.270Z,56.80
2018-03-24T20:40:19.259Z,56.70
2018-03-24T20:42:46.475Z,56.70
2018-03-24T20:45:14.295Z,55.20
2018-03-24T20:47:41.457Z,55.20
2018-03-24T20:50:08.700Z,56.00
2018-03-24T20:52:35.867Z,57.00
2018-03-24T20:55:03.052Z,56.80
2018-03-24T20:57:30.919Z,56.80
2018-03-24T20:59:58.113Z,56.80
2018-03-24T21:02:25.219Z,55.70
2018-03-24T21:04:52.479Z,56.00
2018-03-24T21:07:20.356Z,56.90
2018-03-24T21:09:47.445Z,56.90
2018-03-24T21:12:15.398Z,56.30
2018-03-24T21:14:43.062Z,56.30
2018-03-24T21:17:11.216Z,56.80
2018-03-24T21:19:39.089Z,56.70
2018-03-24T21:22:06.179Z,56.70
2018-03-24T21:24:34.126Z,56.40
2018-03-24T21:27:01.202Z,56.40
2018-03-24T21:29:28.394Z,55.10
2018-03-24T21:31:55.545Z,55.70
2018-03-24T21:34:22.735Z,56.90
2018-03-24T21:36:49.810Z,56.70
2018-03-24T21:39:16.907Z,56.70
2018-03-24T21:41:43.941Z,56.60
2018-03-24T21:44:11.021Z,56.50
2018-03-24T21:46:38.158Z,56.50
2018-03-24T21:49:05.958Z,56.40
2018-03-24T21:51:33.754Z,56.40
2018-03-24T21:54:00.780Z,56.30
2018-03-24T21:56:27.832Z,56.30
2018-03-24T21:58:54.900Z,56.30
2018-03-24T22:01:22.138Z,56.30
2018-03-24T22:03:49.220Z,56.20
2018-03-24T22:06:16.546Z,56.20
2018-03-24T22:08:43.636Z,56.20
2018-03-24T22:11:10.633Z,56.20
2018-03-24T22:13:38.568Z,56.10
2018-03-24T22:16:05.583Z,56.10
2018-03-24T22:18:32.766Z,56.10
2018-03-24T22:21:00.703Z,56.00
2018-03-24T22:23:27.874Z,56.00
2018-03-24T22:25:54.923Z,56.00
2018-03-24T22:28:22.057Z,56.10
2018-03-24T22:30:49.149Z,56.10
2018-03-24T22:33:16.200Z,56.10
2018-03-24T22:35:43.288Z,56.10
2018-03-24T22:38:10.356Z,56.20
2018-03-24T22:40:37.575Z,54.80
2018-03-24T22:43:04.676Z,56.20
2018-03-24T22:45:31.973Z,55.70
2018-03-24T22:47:59.023Z,55.30
2018-03-24T22:50:26.066Z,55.30
2018-03-24T22:52:53.216Z,55.40
2018-03-24T22:55:20.285Z,55.50
2018-03-24T22:57:48.174Z,55.70
2018-03-24T23:00:15.232Z,55.70
2018-03-24T23:02:42.604Z,55.80
2018-03-24T23:05:09.764Z,55.80
2018-03-24T23:07:37.649Z,56.00
2018-03-24T23:10:04.608Z,56.00
2018-03-24T23:12:32.388Z,56.00
2018-03-24T23:14:59.879Z,56.10
2018-03-24T23:17:26.789Z,56.10
2018-03-24T23:19:53.347Z,56.10
2018-03-24T23:22:19.896Z,56.10
2018-03-24T23:24:47.130Z,56.20
2018-03-24T23:27:13.632Z,56.20
2018-03-24T23:29:40.088Z,56.20
2018-03-24T23:32:06.553Z,56.20
2018-03-24T23:34:33.003Z,56.30
2018-03-24T23:36:59.486Z,56.30
2018-03-24T23:39:26.693Z,56.30
2018-03-24T23:41:53.335Z,56.30
2018-03-24T23:44:19.860Z,56.30
2018-03-24T23:46:46.290Z,56.30
2018-03-24T23:49:12.761Z,56.40
2018-03-24T23:51:39.208Z,56.40
2018-03-24T23:54:05.647Z,56.40
2018-03-24T23:56:32.121Z,56.40
2018-03-24T23:58:58.590Z,56.40
